sensor_id;sensor_type;location;lat;lon;timestamp;pressure;altitude;pressure_sealevel;temperature;humidity
60479;BME280;46321;48.398;11.754;2023-10-08T00:00:43;97274.06;;;16.94;49.35
60479;BME280;46321;48.398;11.754;2023-10-08T00:03:12;97273.69;;;16.98;48.95
60479;BME280;46321;48.398;11.754;2023-10-08T00:05:38;97259.38;;;16.77;49.09
60479;BME280;46321;48.398;11.754;2023-10-08T00:08:05;97271.78;;;16.91;49.18
60479;BME280;46321;48.398;11.754;2023-10-08T00:10:35;97259.06;;;16.93;49.17
60479;BME280;46321;48.398;11.754;2023-10-08T00:13:03;97270.56;;;16.94;49.09
60479;BME280;46321;48.398;11.754;2023-10-08T00:15:29;97268.09;;;16.92;48.72
60479;BME280;46321;48.398;11.754;2023-10-08T00:17:55;97256.41;;;16.93;48.41
60479;BME280;46321;48.398;11.754;2023-10-08T00:20:23;97262.94;;;16.91;48.95
60479;BME280;46321;48.398;11.754;2023-10-08T00:23:00;97260.50;;;16.96;48.64
60479;BME280;46321;48.398;11.754;2023-10-08T00:25:27;97261.53;;;16.95;48.35
60479;BME280;46321;48.398;11.754;2023-10-08T00:27:53;97257.78;;;16.89;48.56
60479;BME280;46321;48.398;11.754;2023-10-08T00:30:18;97260.69;;;16.94;48.41
60479;BME280;46321;48.398;11.754;2023-10-08T00:32:44;97261.13;;;16.98;48.23
60479;BME280;46321;48.398;11.754;2023-10-08T00:35:09;97262.38;;;16.96;48.46
60479;BME280;46321;48.398;11.754;2023-10-08T00:37:48;97264.41;;;16.93;48.25
60479;BME280;46321;48.398;11.754;2023-10-08T00:40:13;97258.41;;;16.91;48.04
60479;BME280;46321;48.398;11.754;2023-10-08T00:42:44;97268.50;;;16.96;48.15
60479;BME280;46321;48.398;11.754;2023-10-08T00:45:11;97269.59;;;17.02;47.55
60479;BME280;46321;48.398;11.754;2023-10-08T00:47:40;97259.06;;;16.93;47.88
60479;BME280;46321;48.398;11.754;2023-10-08T00:50:09;97251.06;;;17.00;47.82
60479;BME280;46321;48.398;11.754;2023-10-08T00:52:38;97264.25;;;17.02;47.80
60479;BME280;46321;48.398;11.754;2023-10-08T00:55:08;97253.97;;;17.05;47.56
60479;BME280;46321;48.398;11.754;2023-10-08T00:57:55;97247.78;;;17.05;47.61
60479;BME280;46321;48.398;11.754;2023-10-08T01:00:23;97248.81;;;17.04;47.29
60479;BME280;46321;48.398;11.754;2023-10-08T01:02:57;97246.69;;;16.92;47.59
60479;BME280;46321;48.398;11.754;2023-10-08T01:05:26;97246.31;;;16.96;47.79
60479;BME280;46321;48.398;11.754;2023-10-08T01:08:08;97246.31;;;16.96;47.99
60479;BME280;46321;48.398;11.754;2023-10-08T01:10:35;97247.56;;;17.00;48.04
60479;BME280;46321;48.398;11.754;2023-10-08T01:13:00;97246.34;;;17.02;47.84
60479;BME280;46321;48.398;11.754;2023-10-08T01:15:26;97250.28;;;17.07;47.90
60479;BME280;46321;48.398;11.754;2023-10-08T01:17:55;97236.69;;;17.08;47.89
60479;BME280;46321;48.398;11.754;2023-10-08T01:20:28;97242.59;;;16.97;48.51
60479;BME280;46321;48.398;11.754;2023-10-08T01:23:10;97232.97;;;17.02;48.09
60479;BME280;46321;48.398;11.754;2023-10-08T01:25:42;97235.22;;;16.99;48.58
60479;BME280;46321;48.398;11.754;2023-10-08T01:28:09;97241.81;;;17.03;48.38
60479;BME280;46321;48.398;11.754;2023-10-08T01:30:40;97231.91;;;16.97;48.39
60479;BME280;46321;48.398;11.754;2023-10-08T01:33:09;97231.72;;;16.98;48.50
60479;BME280;46321;48.398;11.754;2023-10-08T01:35:39;97238.34;;;17.02;48.69
60479;BME280;46321;48.398;11.754;2023-10-08T01:38:05;97222.69;;;17.06;48.42
60479;BME280;46321;48.398;11.754;2023-10-08T01:40:31;97224.78;;;17.11;48.48
60479;BME280;46321;48.398;11.754;2023-10-08T01:42:57;97226.63;;;17.10;48.40
60479;BME280;46321;48.398;11.754;2023-10-08T01:45:26;97224.84;;;17.17;48.51
60479;BME280;46321;48.398;11.754;2023-10-08T01:47:51;97228.88;;;17.07;48.71
60479;BME280;46321;48.398;11.754;2023-10-08T01:50:17;97222.34;;;17.16;48.36
60479;BME280;46321;48.398;11.754;2023-10-08T01:52:54;97223.31;;;17.08;48.33
60479;BME280;46321;48.398;11.754;2023-10-08T01:55:20;97224.00;;;17.17;48.12
60479;BME280;46321;48.398;11.754;2023-10-08T01:57:48;97223.13;;;17.10;47.91
60479;BME280;46321;48.398;11.754;2023-10-08T02:00:15;97231.13;;;17.03;47.55
60479;BME280;46321;48.398;11.754;2023-10-08T02:02:49;97225.63;;;17.11;47.59
60479;BME280;46321;48.398;11.754;2023-10-08T02:05:16;97231.97;;;17.10;47.88
60479;BME280;46321;48.398;11.754;2023-10-08T02:07:44;97224.22;;;17.15;47.60
60479;BME280;46321;48.398;11.754;2023-10-08T02:10:10;97222.56;;;17.14;47.82
60479;BME280;46321;48.398;11.754;2023-10-08T02:12:37;97218.59;;;17.10;47.52
60479;BME280;46321;48.398;11.754;2023-10-08T02:15:03;97225.63;;;17.11;46.88
60479;BME280;46321;48.398;11.754;2023-10-08T02:17:28;97215.16;;;17.16;46.98
60479;BME280;46321;48.398;11.754;2023-10-08T02:19:53;97218.28;;;17.20;46.55
60479;BME280;46321;48.398;11.754;2023-10-08T02:22:18;97218.22;;;17.13;46.69
60479;BME280;46321;48.398;11.754;2023-10-08T02:24:44;97211.38;;;17.04;46.69
60479;BME280;46321;48.398;11.754;2023-10-08T02:27:10;97221.50;;;17.09;46.47
60479;BME280;46321;48.398;11.754;2023-10-08T02:29:35;97217.38;;;17.13;46.24
60479;BME280;46321;48.398;11.754;2023-10-08T02:32:01;97212.69;;;17.15;46.27
60479;BME280;46321;48.398;11.754;2023-10-08T02:34:26;97221.06;;;17.12;46.45
60479;BME280;46321;48.398;11.754;2023-10-08T02:36:52;97218.19;;;17.07;46.09
60479;BME280;46321;48.398;11.754;2023-10-08T02:39:17;97218.03;;;17.15;45.78
60479;BME280;46321;48.398;11.754;2023-10-08T02:41:47;97217.03;;;17.23;45.69
60479;BME280;46321;48.398;11.754;2023-10-08T02:44:14;97212.88;;;17.13;45.83
60479;BME280;46321;48.398;11.754;2023-10-08T02:46:44;97217.84;;;17.16;45.46
60479;BME280;46321;48.398;11.754;2023-10-08T02:49:18;97217.44;;;17.20;45.35
60479;BME280;46321;48.398;11.754;2023-10-08T02:51:52;97224.03;;;17.24;45.26
60479;BME280;46321;48.398;11.754;2023-10-08T02:54:18;97221.13;;;17.19;45.53
60479;BME280;46321;48.398;11.754;2023-10-08T02:56:49;97220.75;;;17.22;45.22
60479;BME280;46321;48.398;11.754;2023-10-08T02:59:20;97224.66;;;17.26;44.96
60479;BME280;46321;48.398;11.754;2023-10-08T03:01:50;97236.16;;;17.20;45.41
60479;BME280;46321;48.398;11.754;2023-10-08T03:04:15;97228.56;;;17.23;45.02
60479;BME280;46321;48.398;11.754;2023-10-08T03:06:47;97234.50;;;17.19;45.51
60479;BME280;46321;48.398;11.754;2023-10-08T03:09:18;97234.50;;;17.19;45.75
60479;BME280;46321;48.398;11.754;2023-10-08T03:11:50;97226.47;;;17.19;45.00
60479;BME280;46321;48.398;11.754;2023-10-08T03:14:16;97226.06;;;17.15;45.52
60479;BME280;46321;48.398;11.754;2023-10-08T03:16:49;97229.78;;;17.21;45.12
60479;BME280;46321;48.398;11.754;2023-10-08T03:19:16;97230.59;;;17.14;45.60
60479;BME280;46321;48.398;11.754;2023-10-08T03:21:48;97233.41;;;17.06;46.42
60479;BME280;46321;48.398;11.754;2023-10-08T03:24:17;97225.00;;;17.09;45.79
60479;BME280;46321;48.398;11.754;2023-10-08T03:26:56;97227.00;;;17.07;45.07
60479;BME280;46321;48.398;11.754;2023-10-08T03:29:32;97224.41;;;17.14;45.26
60479;BME280;46321;48.398;11.754;2023-10-08T03:31:57;97223.56;;;17.13;45.21
60479;BME280;46321;48.398;11.754;2023-10-08T03:34:22;97228.09;;;17.13;45.25
60479;BME280;46321;48.398;11.754;2023-10-08T03:36:53;97227.47;;;17.11;45.45
60479;BME280;46321;48.398;11.754;2023-10-08T03:39:25;97223.75;;;17.12;45.07
60479;BME280;46321;48.398;11.754;2023-10-08T03:42:06;97221.50;;;17.09;45.11
60479;BME280;46321;48.398;11.754;2023-10-08T03:44:33;97222.31;;;17.09;45.27
60479;BME280;46321;48.398;11.754;2023-10-08T03:47:02;97233.41;;;17.06;45.41
60479;BME280;46321;48.398;11.754;2023-10-08T03:49:35;97227.22;;;17.05;45.68
60479;BME280;46321;48.398;11.754;2023-10-08T03:52:03;97227.44;;;17.04;45.61
60479;BME280;46321;48.398;11.754;2023-10-08T03:54:31;97223.72;;;17.05;45.65
60479;BME280;46321;48.398;11.754;2023-10-08T03:57:01;97226.19;;;17.00;45.67
60479;BME280;46321;48.398;11.754;2023-10-08T03:59:29;97218.72;;;16.88;45.77
60479;BME280;46321;48.398;11.754;2023-10-08T04:02:02;97220.00;;;16.99;45.75
60479;BME280;46321;48.398;11.754;2023-10-08T04:04:54;97213.63;;;17.00;46.01
60479;BME280;46321;48.398;11.754;2023-10-08T04:07:24;97215.06;;;17.03;45.79
60479;BME280;46321;48.398;11.754;2023-10-08T04:09:51;97213.44;;;17.02;46.13
60479;BME280;46321;48.398;11.754;2023-10-08T04:12:30;97204.56;;;16.94;46.32
60479;BME280;46321;48.398;11.754;2023-10-08T04:15:00;97209.28;;;16.92;45.95
60479;BME280;46321;48.398;11.754;2023-10-08T04:17:25;97211.53;;;16.89;45.99
60479;BME280;46321;48.398;11.754;2023-10-08T04:19:51;97217.22;;;16.79;46.10
60479;BME280;46321;48.398;11.754;2023-10-08T04:22:16;97216.03;;;16.88;45.60
60479;BME280;46321;48.398;11.754;2023-10-08T04:24:43;97223.03;;;16.89;45.72
60479;BME280;46321;48.398;11.754;2023-10-08T04:27:09;97223.81;;;16.83;46.22
60479;BME280;46321;48.398;11.754;2023-10-08T04:29:35;97238.22;;;16.82;46.09
60479;BME280;46321;48.398;11.754;2023-10-08T04:32:03;97225.66;;;16.82;46.21
60479;BME280;46321;48.398;11.754;2023-10-08T04:34:37;97226.50;;;16.83;46.29
60479;BME280;46321;48.398;11.754;2023-10-08T04:37:03;97246.25;;;16.82;46.16
60479;BME280;46321;48.398;11.754;2023-10-08T04:39:38;97244.59;;;16.81;46.80
60479;BME280;46321;48.398;11.754;2023-10-08T04:42:05;97240.03;;;16.75;46.68
60479;BME280;46321;48.398;11.754;2023-10-08T04:44:32;97241.44;;;16.70;46.80
60479;BME280;46321;48.398;11.754;2023-10-08T04:46:58;97246.78;;;16.70;46.44
60479;BME280;46321;48.398;11.754;2023-10-08T04:49:30;97248.03;;;16.75;46.27
60479;BME280;46321;48.398;11.754;2023-10-08T04:52:02;97253.41;;;16.75;46.48
60479;BME280;46321;48.398;11.754;2023-10-08T04:54:39;97262.63;;;16.72;46.34
60479;BME280;46321;48.398;11.754;2023-10-08T04:57:07;97268.34;;;16.62;46.87
60479;BME280;46321;48.398;11.754;2023-10-08T04:59:43;97264.25;;;16.66;47.62
60479;BME280;46321;48.398;11.754;2023-10-08T05:02:09;97262.59;;;16.65;47.39
60479;BME280;46321;48.398;11.754;2023-10-08T05:04:50;97265.25;;;16.65;48.66
60479;BME280;46321;48.398;11.754;2023-10-08T05:07:42;97263.38;;;16.59;48.07
60479;BME280;46321;48.398;11.754;2023-10-08T05:10:10;97273.63;;;16.55;48.26
60479;BME280;46321;48.398;11.754;2023-10-08T05:12:36;97271.34;;;16.52;48.24
60479;BME280;46321;48.398;11.754;2023-10-08T05:15:36;97273.19;;;16.52;48.98
60479;BME280;46321;48.398;11.754;2023-10-08T05:18:06;97274.63;;;16.54;48.40
60479;BME280;46321;48.398;11.754;2023-10-08T05:20:38;97275.28;;;16.56;48.60
60479;BME280;46321;48.398;11.754;2023-10-08T05:23:18;97275.91;;;16.58;48.43
60479;BME280;46321;48.398;11.754;2023-10-08T05:25:50;97272.78;;;16.55;48.39
60479;BME280;46321;48.398;11.754;2023-10-08T05:28:32;97276.94;;;16.57;47.85
60479;BME280;46321;48.398;11.754;2023-10-08T05:31:07;97282.69;;;16.61;47.68
60479;BME280;46321;48.398;11.754;2023-10-08T05:33:39;97295.69;;;16.64;47.85
60479;BME280;46321;48.398;11.754;2023-10-08T05:36:24;97296.69;;;16.63;48.05
60479;BME280;46321;48.398;11.754;2023-10-08T05:39:18;97308.41;;;16.62;48.29
60479;BME280;46321;48.398;11.754;2023-10-08T05:41:49;97318.06;;;16.63;48.38
60479;BME280;46321;48.398;11.754;2023-10-08T05:44:20;97321.13;;;16.60;48.38
60479;BME280;46321;48.398;11.754;2023-10-08T05:46:45;97319.28;;;16.60;48.42
60479;BME280;46321;48.398;11.754;2023-10-08T05:49:36;97322.78;;;16.61;47.95
60479;BME280;46321;48.398;11.754;2023-10-08T05:52:18;97321.59;;;16.64;47.65
60479;BME280;46321;48.398;11.754;2023-10-08T05:55:15;97312.97;;;16.68;47.66
60479;BME280;46321;48.398;11.754;2023-10-08T05:57:47;97304.19;;;16.75;47.57
60479;BME280;46321;48.398;11.754;2023-10-08T06:00:17;97298.22;;;16.73;47.50
60479;BME280;46321;48.398;11.754;2023-10-08T06:02:55;97301.50;;;16.75;47.37
60479;BME280;46321;48.398;11.754;2023-10-08T06:05:34;97310.19;;;16.83;47.59
60479;BME280;46321;48.398;11.754;2023-10-08T06:08:08;97302.72;;;16.72;47.38
60479;BME280;46321;48.398;11.754;2023-10-08T06:10:39;97307.09;;;16.80;47.64
60479;BME280;46321;48.398;11.754;2023-10-08T06:13:05;97306.06;;;16.81;47.40
60479;BME280;46321;48.398;11.754;2023-10-08T06:15:36;97314.28;;;16.79;47.50
60479;BME280;46321;48.398;11.754;2023-10-08T06:18:24;97303.69;;;16.93;47.26
60479;BME280;46321;48.398;11.754;2023-10-08T06:20:57;97309.91;;;17.07;48.10
60479;BME280;46321;48.398;11.754;2023-10-08T06:23:27;97311.44;;;17.16;47.56
60479;BME280;46321;48.398;11.754;2023-10-08T06:25:55;97325.06;;;17.22;47.67
60479;BME280;46321;48.398;11.754;2023-10-08T06:28:25;97323.47;;;17.34;47.62
60479;BME280;46321;48.398;11.754;2023-10-08T06:30:53;97312.81;;;17.41;47.71
60479;BME280;46321;48.398;11.754;2023-10-08T06:33:20;97309.53;;;17.46;47.09
60479;BME280;46321;48.398;11.754;2023-10-08T06:35:46;97317.38;;;17.54;47.69
60479;BME280;46321;48.398;11.754;2023-10-08T06:38:28;97322.34;;;17.57;46.93
60479;BME280;46321;48.398;11.754;2023-10-08T06:40:57;97323.00;;;17.73;47.79
60479;BME280;46321;48.398;11.754;2023-10-08T06:43:25;97314.00;;;17.94;46.52
60479;BME280;46321;48.398;11.754;2023-10-08T06:45:51;97311.34;;;18.08;45.61
60479;BME280;46321;48.398;11.754;2023-10-08T06:48:23;97325.03;;;18.34;46.48
60479;BME280;46321;48.398;11.754;2023-10-08T06:50:50;97324.81;;;18.56;46.11
60479;BME280;46321;48.398;11.754;2023-10-08T06:53:16;97324.59;;;18.71;45.83
60479;BME280;46321;48.398;11.754;2023-10-08T06:55:46;97340.28;;;18.87;45.90
60479;BME280;46321;48.398;11.754;2023-10-08T06:58:13;97332.81;;;19.24;45.43
60479;BME280;46321;48.398;11.754;2023-10-08T07:00:40;97340.16;;;19.55;44.17
60479;BME280;46321;48.398;11.754;2023-10-08T07:03:15;97336.34;;;19.70;43.94
60479;BME280;46321;48.398;11.754;2023-10-08T07:05:51;97346.81;;;19.85;43.98
60479;BME280;46321;48.398;11.754;2023-10-08T07:08:32;97326.44;;;19.71;44.90
60479;BME280;46321;48.398;11.754;2023-10-08T07:11:00;97332.69;;;19.64;43.34
60479;BME280;46321;48.398;11.754;2023-10-08T07:13:26;97342.00;;;19.55;43.86
60479;BME280;46321;48.398;11.754;2023-10-08T07:15:55;97340.59;;;19.45;44.07
60479;BME280;46321;48.398;11.754;2023-10-08T07:18:22;97341.25;;;19.34;44.29
60479;BME280;46321;48.398;11.754;2023-10-08T07:20:54;97342.09;;;19.28;43.46
60479;BME280;46321;48.398;11.754;2023-10-08T07:23:22;97342.09;;;19.28;44.01
60479;BME280;46321;48.398;11.754;2023-10-08T07:26:00;97345.00;;;19.26;44.26
60479;BME280;46321;48.398;11.754;2023-10-08T07:28:44;97324.53;;;19.11;44.43
60479;BME280;46321;48.398;11.754;2023-10-08T07:31:13;97326.63;;;18.96;44.78
60479;BME280;46321;48.398;11.754;2023-10-08T07:33:41;97321.31;;;18.69;44.91
60479;BME280;46321;48.398;11.754;2023-10-08T07:36:10;97329.56;;;18.60;44.96
60479;BME280;46321;48.398;11.754;2023-10-08T07:38:42;97346.06;;;18.50;45.53
60479;BME280;46321;48.398;11.754;2023-10-08T07:41:09;97345.66;;;18.53;45.38
60479;BME280;46321;48.398;11.754;2023-10-08T07:43:36;97336.97;;;18.51;45.33
60479;BME280;46321;48.398;11.754;2023-10-08T07:46:02;97332.66;;;18.44;45.21
60479;BME280;46321;48.398;11.754;2023-10-08T07:48:27;97336.75;;;18.33;45.07
60479;BME280;46321;48.398;11.754;2023-10-08T07:50:55;97343.56;;;18.35;45.06
60479;BME280;46321;48.398;11.754;2023-10-08T07:53:20;97338.81;;;18.37;45.14
60479;BME280;46321;48.398;11.754;2023-10-08T07:55:46;97344.00;;;18.39;44.86
60479;BME280;46321;48.398;11.754;2023-10-08T07:58:14;97345.03;;;18.45;45.14
60479;BME280;46321;48.398;11.754;2023-10-08T08:00:40;97348.09;;;18.48;45.23
60479;BME280;46321;48.398;11.754;2023-10-08T08:03:06;97340.91;;;18.49;45.00
60479;BME280;46321;48.398;11.754;2023-10-08T08:05:31;97351.84;;;18.54;44.49
60479;BME280;46321;48.398;11.754;2023-10-08T08:07:57;97341.94;;;18.54;44.94
60479;BME280;46321;48.398;11.754;2023-10-08T08:10:24;97349.56;;;18.51;45.13
60479;BME280;46321;48.398;11.754;2023-10-08T08:12:51;97353.69;;;18.53;44.65
60479;BME280;46321;48.398;11.754;2023-10-08T08:15:21;97358.66;;;18.50;45.29
60479;BME280;46321;48.398;11.754;2023-10-08T08:17:48;97361.09;;;18.51;45.62
60479;BME280;46321;48.398;11.754;2023-10-08T08:20:13;97371.00;;;18.58;46.25
60479;BME280;46321;48.398;11.754;2023-10-08T08:22:44;97376.97;;;18.60;45.82
60479;BME280;46321;48.398;11.754;2023-10-08T08:25:15;97365.03;;;18.62;47.05
60479;BME280;46321;48.398;11.754;2023-10-08T08:27:42;97360.09;;;18.66;47.57
60479;BME280;46321;48.398;11.754;2023-10-08T08:30:09;97353.91;;;18.72;46.15
60479;BME280;46321;48.398;11.754;2023-10-08T08:32:39;97357.00;;;18.76;45.22
60479;BME280;46321;48.398;11.754;2023-10-08T08:35:09;97351.41;;;18.77;45.83
60479;BME280;46321;48.398;11.754;2023-10-08T08:37:35;97343.97;;;18.80;46.44
60479;BME280;46321;48.398;11.754;2023-10-08T08:40:02;97355.53;;;18.87;46.65
60479;BME280;46321;48.398;11.754;2023-10-08T08:42:33;97364.19;;;19.03;46.04
60479;BME280;46321;48.398;11.754;2023-10-08T08:45:02;97363.56;;;19.14;46.95
60479;BME280;46321;48.398;11.754;2023-10-08T08:47:29;97360.25;;;19.26;46.92
60479;BME280;46321;48.398;11.754;2023-10-08T08:49:56;97356.34;;;19.21;45.75
60479;BME280;46321;48.398;11.754;2023-10-08T08:52:25;97366.00;;;19.36;46.01
60479;BME280;46321;48.398;11.754;2023-10-08T08:54:50;97376.75;;;19.29;46.82
60479;BME280;46321;48.398;11.754;2023-10-08T08:57:17;97383.97;;;19.36;46.63
60479;BME280;46321;48.398;11.754;2023-10-08T08:59:53;97385.63;;;19.37;47.17
60479;BME280;46321;48.398;11.754;2023-10-08T09:02:19;97388.31;;;19.30;47.10
60479;BME280;46321;48.398;11.754;2023-10-08T09:04:44;97391.22;;;19.28;46.65
60479;BME280;46321;48.398;11.754;2023-10-08T09:07:12;97384.63;;;19.17;46.25
60479;BME280;46321;48.398;11.754;2023-10-08T09:09:37;97384.63;;;19.17;47.06
60479;BME280;46321;48.398;11.754;2023-10-08T09:12:06;97388.09;;;19.11;46.12
60479;BME280;46321;48.398;11.754;2023-10-08T09:14:36;97395.13;;;19.12;46.63
60479;BME280;46321;48.398;11.754;2023-10-08T09:17:01;97392.84;;;19.09;47.16
60479;BME280;46321;48.398;11.754;2023-10-08T09:19:30;97382.34;;;19.21;46.93
60479;BME280;46321;48.398;11.754;2023-10-08T09:24:29;97386.88;;;19.34;45.84
60479;BME280;46321;48.398;11.754;2023-10-08T09:26:54;97386.00;;;19.47;46.12
60479;BME280;46321;48.398;11.754;2023-10-08T09:29:24;97391.56;;;19.59;45.85
60479;BME280;46321;48.398;11.754;2023-10-08T09:31:56;97400.13;;;19.88;44.84
60479;BME280;46321;48.398;11.754;2023-10-08T09:34:26;97408.50;;;20.06;44.79
60479;BME280;46321;48.398;11.754;2023-10-08T09:36:52;97409.94;;;20.15;44.03
60479;BME280;46321;48.398;11.754;2023-10-08T09:39:19;97412.44;;;20.03;44.50
60479;BME280;46321;48.398;11.754;2023-10-08T09:41:54;97427.94;;;20.08;44.78
60479;BME280;46321;48.398;11.754;2023-10-08T09:44:21;97424.63;;;20.06;43.71
60479;BME280;46321;48.398;11.754;2023-10-08T09:46:53;97432.69;;;20.12;44.51
60479;BME280;46321;48.398;11.754;2023-10-08T09:49:29;97424.63;;;20.12;43.91
60479;BME280;46321;48.398;11.754;2023-10-08T09:51:55;97414.50;;;20.14;43.22
60479;BME280;46321;48.398;11.754;2023-10-08T09:54:24;97398.22;;;20.09;42.14
60479;BME280;46321;48.398;11.754;2023-10-08T09:56:57;97401.31;;;19.99;42.97
60479;BME280;46321;48.398;11.754;2023-10-08T09:59:26;97404.56;;;20.15;43.33
60479;BME280;46321;48.398;11.754;2023-10-08T10:01:53;97414.66;;;20.27;43.15
60479;BME280;46321;48.398;11.754;2023-10-08T10:04:24;97419.41;;;20.24;43.53
60479;BME280;46321;48.398;11.754;2023-10-08T10:06:49;97430.59;;;20.21;43.92
60479;BME280;46321;48.398;11.754;2023-10-08T10:09:25;97439.41;;;20.35;43.72
60479;BME280;46321;48.398;11.754;2023-10-08T10:11:52;97437.16;;;20.25;43.54
60479;BME280;46321;48.398;11.754;2023-10-08T10:14:22;97443.94;;;20.35;43.53
60479;BME280;46321;48.398;11.754;2023-10-08T10:17:13;97440.66;;;20.33;43.16
60479;BME280;46321;48.398;11.754;2023-10-08T10:19:40;97441.88;;;20.37;43.20
60479;BME280;46321;48.398;11.754;2023-10-08T10:22:14;97441.06;;;20.30;44.08
60479;BME280;46321;48.398;11.754;2023-10-08T10:24:42;97445.16;;;20.39;44.08
60479;BME280;46321;48.398;11.754;2023-10-08T10:27:15;97445.63;;;20.36;44.72
60479;BME280;46321;48.398;11.754;2023-10-08T10:29:41;97437.31;;;20.38;44.26
60479;BME280;46321;48.398;11.754;2023-10-08T10:32:10;97430.47;;;20.42;44.91
60479;BME280;46321;48.398;11.754;2023-10-08T10:34:38;97422.06;;;20.31;44.39
60479;BME280;46321;48.398;11.754;2023-10-08T10:37:04;97415.44;;;20.34;44.48
60479;BME280;46321;48.398;11.754;2023-10-08T10:39:50;97409.38;;;20.39;44.81
60479;BME280;46321;48.398;11.754;2023-10-08T10:42:18;97390.63;;;20.32;44.14
60479;BME280;46321;48.398;11.754;2023-10-08T10:44:47;97396.44;;;20.29;44.36
60479;BME280;46321;48.398;11.754;2023-10-08T10:47:16;97397.13;;;20.50;44.38
60479;BME280;46321;48.398;11.754;2023-10-08T10:49:42;97388.81;;;20.58;43.92
60479;BME280;46321;48.398;11.754;2023-10-08T10:52:40;97376.97;;;20.33;43.84
60479;BME280;46321;48.398;11.754;2023-10-08T10:55:18;97374.94;;;20.54;43.77
60479;BME280;46321;48.398;11.754;2023-10-08T10:57:48;97373.00;;;20.43;43.90
60479;BME280;46321;48.398;11.754;2023-10-08T11:00:30;97385.88;;;20.59;43.63
60479;BME280;46321;48.398;11.754;2023-10-08T11:02:59;97387.44;;;20.74;44.12
60479;BME280;46321;48.398;11.754;2023-10-08T11:05:28;97382.66;;;20.76;44.29
60479;BME280;46321;48.398;11.754;2023-10-08T11:07:55;97380.72;;;20.83;44.09
60479;BME280;46321;48.398;11.754;2023-10-08T11:10:35;97386.34;;;20.82;43.31
60479;BME280;46321;48.398;11.754;2023-10-08T11:13:04;97377.13;;;20.71;44.19
60479;BME280;46321;48.398;11.754;2023-10-08T11:15:30;97374.75;;;20.56;43.93
60479;BME280;46321;48.398;11.754;2023-10-08T11:18:13;97374.25;;;20.40;44.38
60479;BME280;46321;48.398;11.754;2023-10-08T11:20:40;97372.44;;;20.34;43.76
60479;BME280;46321;48.398;11.754;2023-10-08T11:25:57;97382.81;;;20.56;43.78
60479;BME280;46321;48.398;11.754;2023-10-08T11:30:59;97381.28;;;20.67;44.37
60479;BME280;46321;48.398;11.754;2023-10-08T11:33:33;97400.28;;;20.72;44.85
60479;BME280;46321;48.398;11.754;2023-10-08T11:36:02;97402.16;;;20.71;45.41
60479;BME280;46321;48.398;11.754;2023-10-08T11:38:37;97410.66;;;20.94;43.78
60479;BME280;46321;48.398;11.754;2023-10-08T11:41:12;97406.91;;;20.95;44.55
60479;BME280;46321;48.398;11.754;2023-10-08T11:43:49;97410.03;;;20.99;44.15
60479;BME280;46321;48.398;11.754;2023-10-08T11:46:25;97411.63;;;21.07;43.92
60479;BME280;46321;48.398;11.754;2023-10-08T11:48:52;97411.56;;;21.13;43.14
60479;BME280;46321;48.398;11.754;2023-10-08T11:51:17;97403.16;;;21.03;42.60
60479;BME280;46321;48.398;11.754;2023-10-08T11:53:44;97412.53;;;20.93;43.92
60479;BME280;46321;48.398;11.754;2023-10-08T11:56:12;97409.66;;;20.88;44.18
60479;BME280;46321;48.398;11.754;2023-10-08T11:58:41;97415.78;;;21.02;42.68
60479;BME280;46321;48.398;11.754;2023-10-08T12:01:12;97411.09;;;20.91;42.78
60479;BME280;46321;48.398;11.754;2023-10-08T12:03:42;97402.56;;;21.01;43.35
60479;BME280;46321;48.398;11.754;2023-10-08T12:06:10;97403.03;;;20.91;42.41
60479;BME280;46321;48.398;11.754;2023-10-08T12:08:40;97399.72;;;20.89;43.58
60479;BME280;46321;48.398;11.754;2023-10-08T12:11:05;97392.25;;;20.91;43.73
60479;BME280;46321;48.398;11.754;2023-10-08T12:13:40;97390.75;;;20.76;43.80
60479;BME280;46321;48.398;11.754;2023-10-08T12:16:15;97382.31;;;20.66;43.66
60479;BME280;46321;48.398;11.754;2023-10-08T12:18:48;97387.75;;;20.59;44.14
60479;BME280;46321;48.398;11.754;2023-10-08T12:21:17;97376.41;;;20.82;43.59
60479;BME280;46321;48.398;11.754;2023-10-08T12:23:43;97386.38;;;20.75;44.10
60479;BME280;46321;48.398;11.754;2023-10-08T12:26:10;97374.97;;;20.80;44.17
60479;BME280;46321;48.398;11.754;2023-10-08T12:28:40;97376.03;;;20.79;44.45
60479;BME280;46321;48.398;11.754;2023-10-08T12:31:06;97384.19;;;20.91;44.69
60479;BME280;46321;48.398;11.754;2023-10-08T12:33:31;97384.66;;;20.88;44.36
60479;BME280;46321;48.398;11.754;2023-10-08T12:35:57;97382.34;;;20.91;45.21
60479;BME280;46321;48.398;11.754;2023-10-08T12:38:23;97374.31;;;20.85;44.46
60479;BME280;46321;48.398;11.754;2023-10-08T12:40:49;97378.44;;;20.87;44.57
60479;BME280;46321;48.398;11.754;2023-10-08T12:43:21;97376.06;;;20.98;45.25
60479;BME280;46321;48.398;11.754;2023-10-08T12:45:48;97380.84;;;20.96;45.84
60479;BME280;46321;48.398;11.754;2023-10-08T12:48:27;97369.91;;;20.90;45.08
60479;BME280;46321;48.398;11.754;2023-10-08T12:50:54;97363.13;;;20.88;44.83
60479;BME280;46321;48.398;11.754;2023-10-08T12:53:24;97358.13;;;20.91;45.01
60479;BME280;46321;48.398;11.754;2023-10-08T12:55:55;97354.34;;;20.74;45.07
60479;BME280;46321;48.398;11.754;2023-10-08T12:58:23;97365.19;;;20.86;45.04
60479;BME280;46321;48.398;11.754;2023-10-08T13:00:58;97374.91;;;20.87;44.89
60479;BME280;46321;48.398;11.754;2023-10-08T13:03:26;97381.28;;;20.92;46.00
60479;BME280;46321;48.398;11.754;2023-10-08T13:05:56;97391.88;;;20.87;45.36
60479;BME280;46321;48.398;11.754;2023-10-08T13:08:32;97400.16;;;20.86;45.69
60479;BME280;46321;48.398;11.754;2023-10-08T13:10:59;97407.72;;;21.02;45.43
60479;BME280;46321;48.398;11.754;2023-10-08T13:13:29;97403.13;;;21.10;46.24